createdAt,value
2023-03-17T00:02:25.818Z,11.00
2023-03-17T00:04:54.088Z,11.57
2023-03-17T00:07:22.558Z,10.97
2023-03-17T00:09:50.693Z,11.07
2023-03-17T00:12:22.534Z,11.27
2023-03-17T00:15:20.568Z,11.00
2023-03-17T00:18:05.411Z,10.47
2023-03-17T00:20:52.263Z,10.30
2023-03-17T00:23:28.290Z,9.93
2023-03-17T00:26:09.552Z,9.83
2023-03-17T00:28:40.326Z,11.00
2023-03-17T00:31:15.771Z,11.90
2023-03-17T00:33:45.179Z,12.47
2023-03-17T00:36:16.804Z,14.13
2023-03-17T00:38:44.922Z,14.63
2023-03-17T00:41:13.471Z,13.57
2023-03-17T00:43:43.064Z,14.20
2023-03-17T00:46:19.180Z,12.30
2023-03-17T00:48:49.141Z,13.03
2023-03-17T00:51:17.738Z,12.10
2023-03-17T00:53:46.028Z,11.17
2023-03-17T00:56:16.332Z,10.23
2023-03-17T00:58:46.660Z,9.37
2023-03-17T01:01:15.228Z,9.23
2023-03-17T01:03:46.372Z,10.13
2023-03-17T01:06:21.093Z,9.77
2023-03-17T01:08:50.314Z,9.87
2023-03-17T01:11:21.547Z,10.33
2023-03-17T01:13:51.048Z,9.93
2023-03-17T01:16:18.974Z,10.40
2023-03-17T01:18:46.949Z,9.67
2023-03-17T01:21:15.440Z,9.43
2023-03-17T01:23:43.676Z,9.80
2023-03-17T01:26:12.730Z,10.10
2023-03-17T01:28:40.611Z,9.17
2023-03-17T01:31:10.490Z,9.50
2023-03-17T01:33:38.388Z,9.47
2023-03-17T01:36:06.839Z,9.00
2023-03-17T01:38:35.490Z,9.70
2023-03-17T01:41:03.416Z,9.50
2023-03-17T01:43:31.869Z,9.43
2023-03-17T01:46:21.916Z,9.93
2023-03-17T01:48:56.784Z,8.77
2023-03-17T01:51:31.890Z,9.13
2023-03-17T01:54:01.351Z,8.50
2023-03-17T01:56:30.276Z,8.20
2023-03-17T01:59:00.757Z,8.53
2023-03-17T02:01:35.434Z,8.23
2023-03-17T02:04:04.591Z,8.80
2023-03-17T02:06:33.502Z,7.90
2023-03-17T02:09:02.000Z,8.40
2023-03-17T02:11:30.692Z,8.10
2023-03-17T02:14:21.822Z,8.03
2023-03-17T02:16:51.179Z,8.33
2023-03-17T02:19:21.077Z,8.00
2023-03-17T02:21:51.978Z,7.67
2023-03-17T02:24:30.018Z,7.63
2023-03-17T02:27:02.386Z,7.80
2023-03-17T02:29:33.694Z,8.00
2023-03-17T02:32:01.768Z,7.83
2023-03-17T02:34:29.769Z,7.93
2023-03-17T02:36:59.528Z,7.60
2023-03-17T02:39:27.707Z,7.77
2023-03-17T02:41:55.935Z,8.00
2023-03-17T02:44:23.784Z,7.43
2023-03-17T02:46:51.920Z,8.20
2023-03-17T02:49:20.724Z,7.37
2023-03-17T02:51:48.640Z,7.27
2023-03-17T02:54:18.264Z,7.27
2023-03-17T02:56:46.532Z,8.00
2023-03-17T02:59:14.371Z,7.67
2023-03-17T03:01:42.214Z,7.47
2023-03-17T03:04:10.150Z,7.47
2023-03-17T03:06:39.849Z,7.53
2023-03-17T03:09:07.797Z,7.53
2023-03-17T03:11:37.017Z,7.40
2023-03-17T03:14:04.971Z,7.20
2023-03-17T03:19:34.678Z,7.03
2023-03-17T03:22:02.868Z,7.20
2023-03-17T03:24:30.756Z,7.07
2023-03-17T03:26:59.956Z,7.90
2023-03-17T03:29:28.113Z,7.50
2023-03-17T03:31:56.260Z,7.60
2023-03-17T03:34:24.120Z,7.80
2023-03-17T03:36:51.934Z,7.70
2023-03-17T03:39:19.812Z,7.40
2023-03-17T03:41:47.727Z,7.33
2023-03-17T03:44:17.023Z,7.60
2023-03-17T03:46:44.938Z,7.90
2023-03-17T03:49:13.369Z,7.50
2023-03-17T03:51:41.590Z,7.10
2023-03-17T03:54:09.503Z,6.90
2023-03-17T03:56:51.613Z,7.77
2023-03-17T03:59:29.537Z,7.40
2023-03-17T04:01:57.513Z,7.23
2023-03-17T04:04:26.429Z,7.33
2023-03-17T04:06:56.498Z,7.10
2023-03-17T04:09:28.895Z,7.70
2023-03-17T04:11:56.793Z,7.00
2023-03-17T04:14:26.070Z,7.23
2023-03-17T04:16:54.163Z,7.03
2023-03-17T04:19:23.573Z,7.90
2023-03-17T04:21:53.729Z,7.40
2023-03-17T04:24:23.017Z,7.37
2023-03-17T04:26:51.991Z,7.30
2023-03-17T04:29:20.174Z,7.53
2023-03-17T04:31:49.380Z,6.70
2023-03-17T04:34:19.497Z,7.30
2023-03-17T04:36:48.882Z,7.50
2023-03-17T04:39:19.541Z,7.50
2023-03-17T04:42:01.733Z,7.50
2023-03-17T04:44:36.606Z,6.57
2023-03-17T04:47:25.946Z,6.37
2023-03-17T04:49:58.936Z,6.90
2023-03-17T04:52:42.891Z,7.03
2023-03-17T04:55:20.381Z,7.10
2023-03-17T05:00:41.741Z,7.50
2023-03-17T05:03:26.137Z,6.80
2023-03-17T05:05:55.588Z,7.17
2023-03-17T05:08:23.494Z,7.33
2023-03-17T05:10:51.792Z,7.57
2023-03-17T05:13:19.887Z,7.97
2023-03-17T05:15:50.788Z,6.90
2023-03-17T05:18:23.840Z,7.70
2023-03-17T05:20:52.422Z,7.70
2023-03-17T05:23:22.788Z,7.00
2023-03-17T05:25:51.357Z,8.97
2023-03-17T05:28:19.444Z,12.80
2023-03-17T05:30:48.086Z,9.00
2023-03-17T05:33:16.453Z,7.07
2023-03-17T05:35:46.531Z,7.47
2023-03-17T05:38:18.296Z,8.60
2023-03-17T05:40:49.481Z,8.63
2023-03-17T05:43:17.521Z,8.77
2023-03-17T05:45:45.627Z,7.77
2023-03-17T05:48:13.552Z,7.17
2023-03-17T05:50:42.602Z,7.67
2023-03-17T05:53:12.273Z,7.43
2023-03-17T05:55:40.617Z,7.63
2023-03-17T05:58:09.575Z,7.40
2023-03-17T06:00:38.137Z,8.10
2023-03-17T06:03:06.489Z,8.67
2023-03-17T06:05:34.952Z,8.30
2023-03-17T06:08:06.775Z,8.47
2023-03-17T06:10:36.399Z,8.40
2023-03-17T06:13:05.153Z,8.70
2023-03-17T06:15:34.432Z,7.43
2023-03-17T06:18:02.509Z,6.70
2023-03-17T06:20:31.283Z,7.83
2023-03-17T06:23:05.617Z,8.00
2023-03-17T06:25:35.899Z,7.50
2023-03-17T06:28:04.342Z,7.70
2023-03-17T06:30:33.731Z,7.70
2023-03-17T06:33:02.127Z,7.77
2023-03-17T06:35:30.737Z,8.53
2023-03-17T06:37:59.037Z,8.20
2023-03-17T06:40:26.980Z,8.27
2023-03-17T06:42:56.627Z,7.70
2023-03-17T06:45:24.706Z,7.57
2023-03-17T06:47:52.603Z,8.40
2023-03-17T06:50:21.012Z,8.23
2023-03-17T06:52:48.902Z,7.80
2023-03-17T06:55:17.565Z,7.60
2023-03-17T06:57:45.554Z,7.73
2023-03-17T07:00:16.046Z,8.27
2023-03-17T07:02:44.222Z,7.63
2023-03-17T07:05:13.942Z,8.47
2023-03-17T07:07:43.638Z,7.40
2023-03-17T07:10:13.828Z,7.17
2023-03-17T07:12:42.672Z,7.73
2023-03-17T07:15:13.566Z,8.73
2023-03-17T07:17:42.998Z,8.70
2023-03-17T07:20:16.089Z,8.73
2023-03-17T07:22:44.087Z,9.30
2023-03-17T07:25:14.284Z,8.03
2023-03-17T07:27:42.312Z,9.57
2023-03-17T07:30:15.209Z,8.93
2023-03-17T07:32:44.783Z,9.93
2023-03-17T07:35:16.298Z,10.63
2023-03-17T07:37:44.642Z,8.83
2023-03-17T07:40:14.930Z,6.80
2023-03-17T07:42:43.570Z,6.80
2023-03-17T07:45:12.998Z,6.40
2023-03-17T07:47:43.819Z,6.00
2023-03-17T07:50:18.587Z,6.37
2023-03-17T07:52:48.359Z,6.87
2023-03-17T07:55:17.571Z,6.33
2023-03-17T07:57:47.906Z,6.93
2023-03-17T08:00:18.836Z,6.70
2023-03-17T08:03:09.472Z,6.70
2023-03-17T08:05:44.758Z,6.63
2023-03-17T08:08:14.100Z,6.47
2023-03-17T08:10:42.268Z,7.63
2023-03-17T08:13:15.187Z,8.00
2023-03-17T08:15:43.924Z,8.27
2023-03-17T08:18:14.441Z,8.07
2023-03-17T08:20:47.343Z,8.90
2023-03-17T08:23:17.624Z,7.80
2023-03-17T08:25:48.927Z,8.47
2023-03-17T08:28:18.219Z,8.07
2023-03-17T08:30:53.115Z,7.90
2023-03-17T08:33:22.728Z,8.23
2023-03-17T08:35:53.630Z,7.93
2023-03-17T08:38:24.267Z,9.30
2023-03-17T08:40:52.909Z,9.47
2023-03-17T08:43:20.858Z,9.87
2023-03-17T08:45:48.903Z,10.13
2023-03-17T08:48:19.079Z,10.10
2023-03-17T08:50:48.939Z,10.03
2023-03-17T08:53:22.051Z,10.13
2023-03-17T08:55:58.045Z,10.00
2023-03-17T08:58:27.501Z,10.53
2023-03-17T09:00:59.949Z,8.87
2023-03-17T09:03:28.164Z,8.67
2023-03-17T09:05:59.172Z,6.93
2023-03-17T09:08:33.960Z,8.00
2023-03-17T09:11:05.682Z,8.70
2023-03-17T09:13:34.172Z,8.90
2023-03-17T09:16:03.150Z,8.57
2023-03-17T09:18:39.099Z,9.47
2023-03-17T09:21:08.719Z,8.93
2023-03-17T09:23:38.289Z,8.43
2023-03-17T09:26:06.738Z,8.43
2023-03-17T09:28:35.427Z,8.37
2023-03-17T09:31:11.971Z,8.10
2023-03-17T09:33:41.653Z,7.50
2023-03-17T09:36:12.153Z,8.87
2023-03-17T09:38:41.482Z,7.33
2023-03-17T09:41:40.628Z,7.00
2023-03-17T09:44:16.346Z,6.40
2023-03-17T09:46:55.906Z,7.10
2023-03-17T09:49:29.206Z,8.07
2023-03-17T09:52:01.970Z,7.87
2023-03-17T09:54:35.999Z,8.20
2023-03-17T09:57:14.980Z,7.50
2023-03-17T09:59:45.931Z,8.23
2023-03-17T10:02:22.657Z,8.80
2023-03-17T10:04:54.762Z,7.07
2023-03-17T10:07:28.832Z,7.70
2023-03-17T10:10:02.989Z,7.60
2023-03-17T10:12:45.540Z,6.30
2023-03-17T10:15:22.463Z,6.80
2023-03-17T10:17:52.374Z,7.57
2023-03-17T10:20:27.308Z,6.30
2023-03-17T10:22:59.453Z,6.20
2023-03-17T10:25:31.942Z,7.37
2023-03-17T10:28:16.631Z,5.30
2023-03-17T10:30:52.614Z,5.07
2023-03-17T10:33:22.427Z,6.40
2023-03-17T10:35:50.692Z,5.13
2023-03-17T10:38:21.204Z,6.00
2023-03-17T10:41:02.510Z,6.53
2023-03-17T10:43:43.453Z,5.57
2023-03-17T10:46:22.498Z,4.77
2023-03-17T10:49:04.998Z,4.50
2023-03-17T10:51:39.146Z,4.00
2023-03-17T10:54:13.951Z,4.33
2023-03-17T10:56:47.270Z,4.87
2023-03-17T10:59:24.180Z,5.07
2023-03-17T11:01:59.312Z,5.90
2023-03-17T11:04:31.394Z,5.23
2023-03-17T11:07:01.979Z,4.50
2023-03-17T11:09:38.236Z,4.83
2023-03-17T11:12:20.312Z,4.87
2023-03-17T11:14:51.600Z,4.50
2023-03-17T11:17:28.149Z,5.43
2023-03-17T11:20:05.546Z,5.80
2023-03-17T11:22:40.647Z,5.30
2023-03-17T11:28:04.760Z,5.30
2023-03-17T11:30:37.334Z,5.03
2023-03-17T11:33:14.820Z,4.60
2023-03-17T11:35:51.527Z,4.07
2023-03-17T11:38:26.269Z,4.10
2023-03-17T11:41:17.129Z,4.17
2023-03-17T11:44:01.625Z,4.57
2023-03-17T11:46:35.711Z,6.23
2023-03-17T11:49:14.855Z,6.37
2023-03-17T11:51:56.710Z,6.73
2023-03-17T11:54:34.384Z,5.43
2023-03-17T11:57:07.588Z,4.50
2023-03-17T11:59:43.046Z,6.60
2023-03-17T12:02:21.569Z,5.37
2023-03-17T12:04:55.688Z,3.40
2023-03-17T12:07:27.276Z,5.97
2023-03-17T12:10:17.379Z,7.10
2023-03-17T12:12:51.206Z,5.40
2023-03-17T12:15:28.145Z,6.73
2023-03-17T12:18:00.917Z,4.50
2023-03-17T12:20:34.997Z,4.23
2023-03-17T12:23:07.847Z,3.67
2023-03-17T12:25:42.601Z,4.87
2023-03-17T12:28:16.902Z,4.20
2023-03-17T12:30:51.028Z,4.70
2023-03-17T12:33:25.802Z,4.07
2023-03-17T12:35:53.829Z,3.27
2023-03-17T12:38:31.436Z,3.00
2023-03-17T12:41:19.128Z,2.47
2023-03-17T12:44:02.345Z,2.80
2023-03-17T12:47:08.491Z,4.00
2023-03-17T12:50:07.295Z,4.67
2023-03-17T12:52:50.382Z,3.00
2023-03-17T12:55:19.670Z,2.97
2023-03-17T12:57:58.834Z,3.43
2023-03-17T13:00:29.714Z,2.70
2023-03-17T13:03:18.732Z,3.07
2023-03-17T13:05:48.776Z,2.70
2023-03-17T13:08:25.838Z,2.30
2023-03-17T13:11:18.642Z,1.93
2023-03-17T13:13:59.113Z,1.90
2023-03-17T13:16:30.421Z,1.93
2023-03-17T13:19:22.593Z,2.40
2023-03-17T13:21:53.302Z,2.40
2023-03-17T13:24:47.002Z,2.87
2023-03-17T13:27:16.033Z,2.60
2023-03-17T13:29:48.767Z,2.37
2023-03-17T13:32:42.883Z,2.57
2023-03-17T13:35:38.982Z,2.07
2023-03-17T13:38:46.741Z,2.10
2023-03-17T13:41:30.296Z,2.30
2023-03-17T13:44:12.412Z,2.80
2023-03-17T13:46:44.150Z,2.17
2023-03-17T13:49:22.602Z,2.60
2023-03-17T13:52:00.276Z,6.87
2023-03-17T13:54:34.280Z,6.97
2023-03-17T13:57:24.102Z,2.47
2023-03-17T13:59:58.466Z,2.37
2023-03-17T14:02:30.582Z,2.50
2023-03-17T14:05:01.832Z,2.90
2023-03-17T14:07:38.104Z,3.37
2023-03-17T14:10:08.080Z,11.93
2023-03-17T14:12:46.111Z,4.13
2023-03-17T14:15:21.588Z,2.97
2023-03-17T14:17:54.762Z,2.93
2023-03-17T14:20:24.897Z,2.73
2023-03-17T14:23:00.047Z,3.37
2023-03-17T14:25:33.697Z,2.90
2023-03-17T14:28:02.028Z,3.63
2023-03-17T14:30:31.680Z,3.67
2023-03-17T14:33:04.625Z,3.90
2023-03-17T14:35:34.670Z,4.10
2023-03-17T14:38:04.264Z,3.20
2023-03-17T14:40:36.894Z,4.33
2023-03-17T14:43:05.390Z,3.47
2023-03-17T14:45:48.652Z,2.47
2023-03-17T14:48:24.550Z,3.77
2023-03-17T14:50:55.122Z,3.27
2023-03-17T14:53:26.459Z,3.73
2023-03-17T14:55:57.348Z,3.27
2023-03-17T14:58:28.548Z,3.40
2023-03-17T15:00:59.257Z,3.43
2023-03-17T15:03:31.838Z,3.47
2023-03-17T15:06:24.218Z,2.90
2023-03-17T15:08:54.582Z,4.63
2023-03-17T15:11:28.217Z,3.90
2023-03-17T15:14:04.910Z,3.13
2023-03-17T15:16:36.203Z,5.70
2023-03-17T15:19:07.894Z,4.10
2023-03-17T15:21:41.070Z,4.43
2023-03-17T15:24:26.463Z,3.50
2023-03-17T15:27:02.046Z,4.07
2023-03-17T15:29:31.064Z,3.60
2023-03-17T15:32:10.413Z,3.37
2023-03-17T15:34:38.373Z,4.43
2023-03-17T15:37:15.457Z,3.90
2023-03-17T15:39:44.887Z,4.40
2023-03-17T15:42:12.850Z,4.33
2023-03-17T15:44:41.296Z,4.13
2023-03-17T15:47:14.269Z,4.07
2023-03-17T15:49:42.235Z,5.00
2023-03-17T15:52:16.522Z,3.60
2023-03-17T15:54:46.283Z,5.83
2023-03-17T15:57:14.878Z,4.70
2023-03-17T15:59:42.839Z,4.60
2023-03-17T16:02:25.893Z,4.40
2023-03-17T16:04:54.375Z,3.93
2023-03-17T16:07:23.303Z,4.97
2023-03-17T16:09:52.564Z,4.17
2023-03-17T16:12:21.247Z,4.97
2023-03-17T16:14:49.167Z,4.60
2023-03-17T16:17:25.260Z,4.63
2023-03-17T16:19:54.432Z,4.03
2023-03-17T16:22:39.039Z,3.70
2023-03-17T16:25:19.914Z,4.50
2023-03-17T16:27:48.210Z,3.80
2023-03-17T16:30:18.396Z,3.50
2023-03-17T16:32:46.345Z,4.53
2023-03-17T16:35:19.282Z,5.33
2023-03-17T16:37:47.551Z,12.97
2023-03-17T16:40:22.511Z,5.27
2023-03-17T16:42:50.491Z,5.30
2023-03-17T16:45:23.664Z,4.27
2023-03-17T16:47:51.644Z,5.53
2023-03-17T16:50:21.605Z,4.73
2023-03-17T16:52:49.554Z,4.00
2023-03-17T16:55:26.475Z,4.10
2023-03-17T16:57:59.030Z,5.03
2023-03-17T17:00:30.609Z,5.87
2023-03-17T17:02:59.468Z,5.93
2023-03-17T17:05:30.082Z,4.93
2023-03-17T17:07:59.147Z,5.83
2023-03-17T17:10:29.488Z,4.87
2023-03-17T17:13:00.292Z,4.43
2023-03-17T17:15:30.520Z,3.90
2023-03-17T17:18:02.231Z,6.20
2023-03-17T17:20:32.752Z,5.40
2023-03-17T17:23:02.473Z,4.83
2023-03-17T17:25:31.455Z,8.53
2023-03-17T17:28:01.407Z,7.40
2023-03-17T17:30:31.458Z,7.10
2023-03-17T17:33:02.466Z,10.07
2023-03-17T17:35:33.151Z,7.27
2023-03-17T17:38:01.682Z,7.90
2023-03-17T17:40:30.858Z,7.90
2023-03-17T17:43:00.745Z,7.67
2023-03-17T17:45:28.581Z,11.57
2023-03-17T17:47:56.534Z,10.87
2023-03-17T17:50:26.625Z,7.73
2023-03-17T17:53:02.735Z,7.60
2023-03-17T17:55:35.418Z,6.80
2023-03-17T17:58:08.302Z,7.37
2023-03-17T18:00:45.280Z,6.93
2023-03-17T18:03:13.699Z,6.63
2023-03-17T18:05:41.740Z,6.73
2023-03-17T18:08:09.744Z,7.17
2023-03-17T18:10:38.272Z,6.47
2023-03-17T18:13:09.981Z,6.67
2023-03-17T18:15:45.896Z,6.80
2023-03-17T18:18:15.804Z,6.33
2023-03-17T18:20:46.070Z,7.47
2023-03-17T18:23:16.515Z,7.90
2023-03-17T18:25:45.108Z,7.63
2023-03-17T18:28:17.541Z,7.43
2023-03-17T18:30:47.832Z,7.83
2023-03-17T18:33:19.795Z,7.70
2023-03-17T18:35:49.917Z,8.00
2023-03-17T18:38:17.997Z,9.07
2023-03-17T18:40:46.357Z,13.53
2023-03-17T18:43:15.900Z,13.37
2023-03-17T18:45:44.646Z,12.40
2023-03-17T18:48:12.620Z,12.50
2023-03-17T18:50:40.540Z,11.60
2023-03-17T18:53:12.257Z,12.07
2023-03-17T18:55:41.272Z,11.27
2023-03-17T18:58:09.550Z,13.33
2023-03-17T19:00:44.600Z,13.63
2023-03-17T19:03:12.908Z,14.03
2023-03-17T19:05:41.846Z,12.47
2023-03-17T19:08:11.625Z,15.43
2023-03-17T19:10:43.466Z,15.17
2023-03-17T19:13:12.290Z,13.10
2023-03-17T19:15:44.458Z,13.97
2023-03-17T19:18:16.361Z,14.07
2023-03-17T19:20:45.429Z,15.53
2023-03-17T19:23:18.849Z,14.20
2023-03-17T19:25:52.756Z,16.00
2023-03-17T19:28:29.584Z,19.00
2023-03-17T19:31:00.214Z,17.80
2023-03-17T19:33:29.554Z,17.03
2023-03-17T19:36:00.132Z,16.97
2023-03-17T19:38:28.515Z,17.13
2023-03-17T19:40:56.723Z,16.47
2023-03-17T19:43:39.413Z,15.70
2023-03-17T19:46:14.201Z,15.67
2023-03-17T19:48:42.213Z,16.83
2023-03-17T19:51:13.794Z,16.97
2023-03-17T19:53:41.748Z,19.10
2023-03-17T19:56:10.935Z,19.77
2023-03-17T19:58:39.520Z,17.33
2023-03-17T20:01:10.437Z,17.97
2023-03-17T20:03:42.763Z,17.70
2023-03-17T20:06:12.067Z,17.00
2023-03-17T20:08:40.756Z,16.20
2023-03-17T20:11:10.732Z,14.90
2023-03-17T20:13:38.848Z,16.20
2023-03-17T20:16:08.222Z,17.17
2023-03-17T20:18:40.901Z,17.27
2023-03-17T20:21:14.230Z,18.00
2023-03-17T20:23:42.275Z,18.97
2023-03-17T20:26:11.611Z,19.03
2023-03-17T20:28:42.529Z,21.20
2023-03-17T20:31:10.828Z,23.47
2023-03-17T20:33:43.224Z,23.33
2023-03-17T20:36:12.836Z,23.77
2023-03-17T20:38:43.126Z,22.47
2023-03-17T20:41:14.235Z,24.20
2023-03-17T20:43:48.242Z,22.80
2023-03-17T20:46:28.879Z,25.07
2023-03-17T20:49:01.795Z,29.20
2023-03-17T20:51:30.066Z,30.00
2023-03-17T20:54:03.237Z,32.27
2023-03-17T20:56:33.831Z,33.37
2023-03-17T20:59:05.210Z,31.47
2023-03-17T21:01:36.683Z,30.53
2023-03-17T21:04:12.041Z,27.80
2023-03-17T21:06:41.549Z,28.40
2023-03-17T21:09:10.807Z,28.07
2023-03-17T21:11:39.164Z,26.33
2023-03-17T21:14:08.052Z,24.77
2023-03-17T21:16:38.447Z,25.37
2023-03-17T21:19:09.748Z,25.70
2023-03-17T21:21:40.474Z,24.13
2023-03-17T21:24:10.143Z,22.23
2023-03-17T21:26:40.471Z,22.07
2023-03-17T21:29:10.373Z,19.80
2023-03-17T21:31:43.272Z,18.57
2023-03-17T21:34:20.596Z,19.13
2023-03-17T21:36:51.352Z,18.80
2023-03-17T21:39:20.998Z,19.20
2023-03-17T21:41:50.981Z,18.97
2023-03-17T21:44:30.985Z,19.83
2023-03-17T21:47:03.437Z,20.10
2023-03-17T21:49:34.688Z,25.47
2023-03-17T21:52:12.591Z,19.83
2023-03-17T21:54:42.804Z,20.17
2023-03-17T21:57:11.897Z,20.43
2023-03-17T21:59:42.710Z,18.63
2023-03-17T22:02:14.682Z,21.40
2023-03-17T22:04:56.042Z,22.80
2023-03-17T22:07:24.810Z,20.83
2023-03-17T22:09:59.883Z,21.70
2023-03-17T22:12:32.136Z,22.67
2023-03-17T22:15:00.361Z,23.50
2023-03-17T22:17:30.977Z,22.80
2023-03-17T22:20:01.343Z,21.87
2023-03-17T22:22:35.857Z,21.20
2023-03-17T22:25:10.230Z,20.67
2023-03-17T22:28:00.110Z,21.23
2023-03-17T22:33:25.823Z,21.90
2023-03-17T22:36:06.020Z,23.60
2023-03-17T22:38:51.851Z,22.30
2023-03-17T22:44:24.012Z,20.47
2023-03-17T22:47:01.182Z,20.07
2023-03-17T22:49:57.826Z,20.33
2023-03-17T22:52:44.742Z,21.70
2023-03-17T22:55:16.064Z,26.90
2023-03-17T23:00:39.609Z,39.90
2023-03-17T23:03:14.664Z,40.77
2023-03-17T23:05:57.671Z,43.23
2023-03-17T23:08:39.771Z,38.20
2023-03-17T23:11:13.765Z,38.33
2023-03-17T23:13:50.605Z,38.30
2023-03-17T23:16:19.096Z,41.47
2023-03-17T23:18:49.473Z,49.53
2023-03-17T23:21:28.180Z,51.70
2023-03-17T23:24:20.823Z,54.53
2023-03-17T23:27:04.685Z,53.07
2023-03-17T23:29:41.287Z,56.23
2023-03-17T23:32:17.609Z,50.27
2023-03-17T23:34:48.342Z,56.17
2023-03-17T23:37:17.186Z,54.50
2023-03-17T23:40:07.567Z,53.53
2023-03-17T23:42:38.464Z,51.17
2023-03-17T23:48:12.018Z,63.77
2023-03-17T23:50:41.532Z,66.37
2023-03-17T23:53:10.093Z,61.73
2023-03-17T23:55:58.181Z,60.90
2023-03-17T23:58:27.045Z,60.90
